createdAt,value
2018-06-21T00:00:12.486Z,76.29
2018-06-21T00:00:53.005Z,76.78
2018-06-21T00:01:33.463Z,76.87
2018-06-21T00:02:13.969Z,76.78
2018-06-21T00:02:54.434Z,76.48
2018-06-21T00:03:34.901Z,76.58
2018-06-21T00:04:15.408Z,76.68
2018-06-21T00:04:55.927Z,76.58
2018-06-21T00:05:36.437Z,77.06
2018-06-21T00:06:16.935Z,77.36
2018-06-21T00:06:57.442Z,77.26
2018-06-21T00:07:37.904Z,77.16
2018-06-21T00:08:18.390Z,76.87
2018-06-21T00:08:58.990Z,77.16
2018-06-21T00:09:39.400Z,77.06
2018-06-21T00:10:19.873Z,76.83
2018-06-21T00:11:00.362Z,77.51
2018-06-21T00:11:40.855Z,77.42
2018-06-21T00:12:21.346Z,77.61
2018-06-21T00:13:01.890Z,77.61
2018-06-21T00:13:42.362Z,77.51
2018-06-21T00:14:22.857Z,77.42
2018-06-21T00:15:03.334Z,77.45
2018-06-21T00:15:43.840Z,77.51
2018-06-21T00:16:24.326Z,77.45
2018-06-21T00:17:04.920Z,77.55
2018-06-21T00:17:45.378Z,77.42
2018-06-21T00:18:25.907Z,77.8
2018-06-21T00:19:06.349Z,77.22
2018-06-21T00:19:46.860Z,77.65
2018-06-21T00:20:27.325Z,77.32
2018-06-21T00:21:08.007Z,77.84
2018-06-21T00:21:48.472Z,77.45
2018-06-21T00:22:28.921Z,77.84
2018-06-21T00:23:09.448Z,77.45
2018-06-21T00:23:49.918Z,77.45
2018-06-21T00:24:30.382Z,77.65
2018-06-21T00:25:10.915Z,77.51
2018-06-21T00:25:51.396Z,77.55
2018-06-21T00:26:31.908Z,77.55
2018-06-21T00:27:12.389Z,77.26
2018-06-21T00:27:52.861Z,77.26
2018-06-21T00:28:33.332Z,77.42
2018-06-21T00:29:13.898Z,77.8
2018-06-21T00:29:54.326Z,78
2018-06-21T00:30:34.868Z,78.13
2018-06-21T00:31:15.352Z,78.23
2018-06-21T00:31:55.828Z,78.19
2018-06-21T00:32:36.350Z,78.19
2018-06-21T00:33:16.866Z,78.09
2018-06-21T00:33:57.402Z,78.03
2018-06-21T00:34:37.876Z,77.75
2018-06-21T00:35:18.362Z,77.94
2018-06-21T00:35:58.825Z,78.03
2018-06-21T00:36:39.383Z,78.23
2018-06-21T00:37:19.816Z,78
2018-06-21T00:38:00.377Z,78.09
2018-06-21T00:38:40.840Z,77.7
2018-06-21T00:39:21.323Z,77.7
2018-06-21T00:40:01.824Z,78.23
2018-06-21T00:40:42.312Z,77.65
2018-06-21T00:41:22.885Z,78.29
2018-06-21T00:42:03.315Z,78
2018-06-21T00:42:43.834Z,77.9
2018-06-21T00:43:24.298Z,78.87
2018-06-21T00:44:04.838Z,78.29
2018-06-21T00:44:45.327Z,78.67
2018-06-21T00:45:25.816Z,78.67
2018-06-21T00:46:06.295Z,78.97
2018-06-21T00:46:46.819Z,78.77
2018-06-21T00:47:27.277Z,78.67
2018-06-21T00:48:07.823Z,78.97
2018-06-21T00:48:48.277Z,78.77
2018-06-21T00:49:28.727Z,78.77
2018-06-21T00:50:09.221Z,78.97
2018-06-21T00:50:49.750Z,78.29
2018-06-21T00:51:30.202Z,78.67
2018-06-21T00:52:10.737Z,78.67
2018-06-21T00:52:51.193Z,77.8
2018-06-21T00:53:31.684Z,78.09
2018-06-21T00:54:12.212Z,78.19
2018-06-21T00:54:52.725Z,77.8
2018-06-21T00:55:33.249Z,78
2018-06-21T00:56:13.708Z,77.7
2018-06-21T00:56:54.170Z,78
2018-06-21T00:57:34.698Z,78.48
2018-06-21T00:58:15.224Z,78.29
2018-06-21T00:58:55.661Z,77.8
2018-06-21T00:59:36.159Z,77.9
2018-06-21T01:00:16.638Z,78.09
2018-06-21T01:00:57.155Z,78
2018-06-21T01:01:37.605Z,78.09
2018-06-21T01:02:18.122Z,78.09
2018-06-21T01:02:58.626Z,77.9
2018-06-21T01:03:39.152Z,78.09
2018-06-21T01:04:19.617Z,78
2018-06-21T01:05:00.226Z,78.19
2018-06-21T01:05:40.735Z,78.29
2018-06-21T01:06:21.247Z,78.09
2018-06-21T01:07:01.763Z,78.19
2018-06-21T01:07:42.270Z,78.19
2018-06-21T01:08:22.700Z,78.19
2018-06-21T01:09:03.253Z,77.7
2018-06-21T01:09:43.834Z,77.9
2018-06-21T01:10:24.312Z,77.9
2018-06-21T01:11:04.758Z,78.05
2018-06-21T01:11:45.258Z,78.09
2018-06-21T01:12:25.744Z,77.96
2018-06-21T01:13:06.218Z,78.15
2018-06-21T01:13:46.717Z,78.25
2018-06-21T01:14:27.260Z,77.86
2018-06-21T01:15:07.692Z,78.05
2018-06-21T01:15:48.155Z,78.34
2018-06-21T01:16:28.675Z,78.83
2018-06-21T01:17:09.172Z,78.15
2018-06-21T01:17:49.674Z,78.05
2018-06-21T01:18:30.161Z,78.64
2018-06-21T01:19:10.636Z,77.96
2018-06-21T01:19:51.087Z,78.05
2018-06-21T01:20:31.554Z,78.05
2018-06-21T01:21:12.101Z,77.76
2018-06-21T01:21:52.561Z,78.05
2018-06-21T01:22:33.026Z,77.96
2018-06-21T01:23:13.512Z,77.86
2018-06-21T01:23:54.032Z,78.64
2018-06-21T01:24:34.519Z,79.12
2018-06-21T01:25:15.017Z,78.44
2018-06-21T01:25:55.543Z,78.15
2018-06-21T01:26:36.066Z,78.25
2018-06-21T01:27:16.599Z,78.44
2018-06-21T01:27:57.129Z,78.54
2018-06-21T01:28:37.648Z,77.76
2018-06-21T01:29:18.169Z,78.64
2018-06-21T01:29:58.716Z,78.74
2018-06-21T01:30:39.237Z,79.12
2018-06-21T01:31:19.755Z,78.92
2018-06-21T01:32:00.299Z,79.02
2018-06-21T01:32:40.815Z,78.92
2018-06-21T01:33:21.344Z,78.83
2018-06-21T01:34:01.864Z,78.83
2018-06-21T01:34:42.379Z,78.64
2018-06-21T01:35:22.912Z,78.83
2018-06-21T01:36:03.432Z,79.22
2018-06-21T01:36:43.953Z,78.74
2018-06-21T01:37:24.473Z,78.54
2018-06-21T01:38:04.996Z,79.5
2018-06-21T01:38:45.523Z,78.92
2018-06-21T01:39:26.040Z,78.64
2018-06-21T01:40:06.574Z,78.92
2018-06-21T01:40:47.094Z,78.64
2018-06-21T01:41:27.621Z,78.05
2018-06-21T01:42:08.137Z,78.74
2018-06-21T01:42:48.663Z,78.64
2018-06-21T01:43:29.169Z,79.12
2018-06-21T01:44:09.692Z,78.34
2018-06-21T01:44:50.212Z,78.44
2018-06-21T01:45:30.732Z,78.64
2018-06-21T01:46:11.255Z,78.34
2018-06-21T01:46:51.769Z,78.05
2018-06-21T01:47:32.292Z,77.96
2018-06-21T01:48:12.833Z,77.96
2018-06-21T01:48:53.350Z,77.96
2018-06-21T01:49:33.877Z,78.54
2018-06-21T01:50:14.398Z,78.64
2018-06-21T01:50:54.917Z,78.83
2018-06-21T01:51:35.432Z,79.02
2018-06-21T01:52:15.966Z,78.74
2018-06-21T01:52:56.492Z,77.96
2018-06-21T01:53:37.051Z,78.25
2018-06-21T01:54:17.546Z,78.15
2018-06-21T01:54:58.065Z,78.44
2018-06-21T01:55:38.609Z,78.74
2018-06-21T01:56:19.123Z,78.92
2018-06-21T01:56:59.660Z,78.83
2018-06-21T01:57:40.229Z,79.5
2018-06-21T01:58:20.704Z,79.02
2018-06-21T01:59:01.233Z,79.12
2018-06-21T01:59:41.749Z,78.99
2018-06-21T02:00:22.273Z,79.47
2018-06-21T02:01:02.801Z,79.08
2018-06-21T02:01:43.339Z,79.22
2018-06-21T02:02:23.824Z,79.08
2018-06-21T02:03:04.350Z,78.59
2018-06-21T02:03:44.882Z,79.17
2018-06-21T02:04:25.395Z,79.17
2018-06-21T02:05:05.889Z,79.27
2018-06-21T02:05:46.404Z,78.89
2018-06-21T02:06:26.940Z,78.89
2018-06-21T02:07:07.488Z,78.83
2018-06-21T02:07:48.021Z,78.83
2018-06-21T02:08:28.541Z,78.69
2018-06-21T02:09:09.100Z,78.89
2018-06-21T02:09:49.614Z,78.79
2018-06-21T02:10:30.128Z,78.5
2018-06-21T02:11:10.650Z,79.17
2018-06-21T02:11:51.161Z,79.47
2018-06-21T02:12:31.673Z,79.27
2018-06-21T02:13:12.194Z,79.17
2018-06-21T02:13:52.713Z,79.08
2018-06-21T02:14:33.241Z,79.27
2018-06-21T02:15:13.767Z,79.17
2018-06-21T02:15:54.292Z,79.47
2018-06-21T02:16:34.850Z,79.47
2018-06-21T02:17:15.367Z,79.17
2018-06-21T02:17:55.883Z,79.17
2018-06-21T02:18:36.407Z,79.27
2018-06-21T02:19:16.934Z,79.37
2018-06-21T02:19:57.457Z,79.27
2018-06-21T02:20:37.986Z,79.27
2018-06-21T02:21:18.514Z,79.27
2018-06-21T02:21:59.057Z,79.27
2018-06-21T02:22:39.536Z,79.24
2018-06-21T02:23:20.057Z,79.08
2018-06-21T02:24:00.594Z,79.37
2018-06-21T02:24:41.165Z,79.14
2018-06-21T02:25:21.740Z,79.33
2018-06-21T02:26:02.219Z,79.08
2018-06-21T02:26:42.727Z,79.82
2018-06-21T02:27:23.255Z,79.33
2018-06-21T02:28:03.760Z,79.33
2018-06-21T02:28:44.292Z,79.52
2018-06-21T02:29:24.810Z,79.72
2018-06-21T02:30:05.337Z,79.72
2018-06-21T02:30:45.858Z,79.95
2018-06-21T02:31:26.371Z,79.47
2018-06-21T02:32:06.909Z,79.85
2018-06-21T02:32:47.415Z,80.01
2018-06-21T02:33:27.939Z,79.57
2018-06-21T02:34:08.451Z,80.11
2018-06-21T02:34:49.118Z,79.95
2018-06-21T02:35:29.607Z,80.05
2018-06-21T02:36:10.126Z,80.11
2018-06-21T02:36:50.643Z,80.49
2018-06-21T02:37:31.147Z,79.95
2018-06-21T02:38:11.667Z,79.85
2018-06-21T02:38:52.207Z,80.49
2018-06-21T02:39:32.716Z,80.2
2018-06-21T02:40:13.243Z,80.24
2018-06-21T02:40:53.780Z,80.01
2018-06-21T02:41:34.292Z,80.11
2018-06-21T02:42:14.795Z,80.49
2018-06-21T02:42:55.346Z,80.59
2018-06-21T02:43:35.857Z,80.4
2018-06-21T02:44:16.364Z,80.69
2018-06-21T02:44:56.895Z,80.54
2018-06-21T02:45:37.430Z,81.07
2018-06-21T02:46:17.951Z,80.69
2018-06-21T02:46:58.466Z,81.07
2018-06-21T02:47:39.008Z,81.17
2018-06-21T02:48:19.530Z,80.88
2018-06-21T02:49:00.050Z,80.88
2018-06-21T02:49:40.556Z,81.07
2018-06-21T02:50:21.082Z,80.79
2018-06-21T02:51:01.592Z,80.88
2018-06-21T02:51:42.109Z,81.37
2018-06-21T02:52:22.632Z,81.07
2018-06-21T02:53:03.143Z,81.46
2018-06-21T02:53:43.642Z,81.75
2018-06-21T02:54:24.164Z,81.85
2018-06-21T02:55:04.688Z,81.56
2018-06-21T02:55:45.190Z,81.27
2018-06-21T02:56:25.702Z,81.56
2018-06-21T02:57:06.228Z,81.56
2018-06-21T02:57:46.750Z,81.37
2018-06-21T02:58:27.271Z,81.65
2018-06-21T02:59:07.792Z,82.23
2018-06-21T02:59:48.317Z,82.43
2018-06-21T03:00:28.840Z,82.23
2018-06-21T03:01:09.372Z,82.43
2018-06-21T03:01:49.889Z,82.43
2018-06-21T03:02:30.393Z,82.23
2018-06-21T03:03:10.920Z,82.14
2018-06-21T03:03:51.466Z,82.23
2018-06-21T03:04:31.962Z,82.33
2018-06-21T03:05:12.539Z,82.23
2018-06-21T03:05:53.046Z,82.62
2018-06-21T03:06:33.576Z,82.33
2018-06-21T03:07:14.078Z,82.43
2018-06-21T03:07:54.611Z,82.43
2018-06-21T03:08:35.147Z,82.68
2018-06-21T03:09:15.648Z,82.72
2018-06-21T03:09:56.170Z,82.33
2018-06-21T03:10:36.685Z,82.87
2018-06-21T03:11:17.207Z,82.91
2018-06-21T03:11:57.739Z,82.62
2018-06-21T03:12:38.275Z,82.78
2018-06-21T03:13:18.787Z,82.58
2018-06-21T03:13:59.300Z,82.97
2018-06-21T03:14:39.824Z,83.16
2018-06-21T03:15:20.348Z,83.16
2018-06-21T03:16:00.870Z,82.81
2018-06-21T03:16:41.389Z,82.58
2018-06-21T03:17:21.923Z,83.16
2018-06-21T03:18:02.424Z,82.97
2018-06-21T03:18:42.956Z,83.49
2018-06-21T03:19:23.479Z,83.01
2018-06-21T03:20:04.006Z,82.87
2018-06-21T03:20:44.521Z,83.16
2018-06-21T03:21:25.048Z,83.16
2018-06-21T03:22:05.567Z,82.68
2018-06-21T03:22:46.091Z,83.01
2018-06-21T03:23:26.602Z,82.81
2018-06-21T03:24:07.096Z,82.72
2018-06-21T03:24:47.608Z,82.91
2018-06-21T03:25:28.132Z,83.4
2018-06-21T03:26:08.645Z,83.16
2018-06-21T03:26:49.169Z,83.06
2018-06-21T03:27:29.696Z,83.26
2018-06-21T03:28:10.211Z,83.36
2018-06-21T03:28:50.733Z,83.06
2018-06-21T03:29:31.255Z,83.11
2018-06-21T03:30:11.776Z,83.01
2018-06-21T03:30:52.311Z,82.87
2018-06-21T03:31:32.833Z,82.91
2018-06-21T03:32:13.363Z,82.72
2018-06-21T03:32:53.889Z,82.81
2018-06-21T03:33:34.408Z,83.01
2018-06-21T03:34:14.936Z,83.01
2018-06-21T03:34:55.457Z,82.91
2018-06-21T03:35:35.975Z,83.3
2018-06-21T03:36:16.499Z,83.4
2018-06-21T03:36:57.022Z,82.81
2018-06-21T03:37:37.547Z,83.2
2018-06-21T03:38:18.070Z,83.3
2018-06-21T03:38:58.592Z,82.91
2018-06-21T03:39:39.115Z,83.01
2018-06-21T03:40:19.633Z,82.91
2018-06-21T03:41:00.157Z,83.11
2018-06-21T03:41:40.683Z,83.01
2018-06-21T03:42:21.215Z,83.01
2018-06-21T03:43:01.772Z,83.3
2018-06-21T03:43:42.303Z,83.4
2018-06-21T03:44:22.825Z,84.08
2018-06-21T03:45:03.357Z,83.78
2018-06-21T03:45:43.883Z,83.98
2018-06-21T03:46:24.410Z,83.59
2018-06-21T03:47:04.937Z,83.88
2018-06-21T03:47:45.464Z,83.78
2018-06-21T03:48:25.981Z,83.69
2018-06-21T03:49:06.502Z,83.98
2018-06-21T03:49:47.015Z,83.11
2018-06-21T03:50:27.530Z,83.59
2018-06-21T03:51:08.056Z,83.78
2018-06-21T03:51:48.578Z,83.78
2018-06-21T03:52:29.097Z,83.88
2018-06-21T03:53:09.615Z,83.98
2018-06-21T03:53:50.131Z,84.08
2018-06-21T03:54:30.648Z,83.88
2018-06-21T03:55:11.163Z,84.08
2018-06-21T03:55:51.681Z,83.98
2018-06-21T03:56:32.205Z,83.59
2018-06-21T03:57:12.891Z,83.98
2018-06-21T03:57:53.415Z,84.46
2018-06-21T03:58:33.935Z,84.17
2018-06-21T03:59:14.458Z,83.88
2018-06-21T03:59:54.980Z,84.08
2018-06-21T04:00:35.514Z,84.08
2018-06-21T04:01:16.041Z,83.69
2018-06-21T04:01:56.573Z,84.08
2018-06-21T04:02:37.101Z,84.08
2018-06-21T04:03:17.614Z,83.88
2018-06-21T04:03:58.124Z,84.36
2018-06-21T04:04:38.647Z,84.08
2018-06-21T04:05:19.227Z,84.32
2018-06-21T04:05:59.684Z,84.08
2018-06-21T04:06:40.206Z,83.88
2018-06-21T04:07:20.724Z,83.98
2018-06-21T04:08:01.244Z,83.2
2018-06-21T04:08:41.770Z,83.69
2018-06-21T04:09:22.284Z,84.08
2018-06-21T04:10:02.796Z,83.88
2018-06-21T04:10:43.322Z,83.88
2018-06-21T04:11:23.855Z,83.78
2018-06-21T04:12:04.363Z,83.78
2018-06-21T04:12:44.888Z,83.88
2018-06-21T04:13:25.394Z,84.56
2018-06-21T04:14:05.987Z,83.88
2018-06-21T04:14:46.503Z,83.69
2018-06-21T04:15:27.025Z,83.78
2018-06-21T04:16:07.721Z,83.69
2018-06-21T04:16:48.132Z,83.88
2018-06-21T04:17:28.689Z,83.78
2018-06-21T04:18:09.173Z,83.78
2018-06-21T04:18:49.695Z,83.59
2018-06-21T04:19:30.209Z,83.88
2018-06-21T04:20:10.736Z,83.69
2018-06-21T04:20:51.272Z,83.88
2018-06-21T04:21:31.791Z,83.01
2018-06-21T04:22:12.315Z,83.3
2018-06-21T04:22:52.822Z,82.62
2018-06-21T04:23:33.329Z,82.86
2018-06-21T04:24:13.875Z,83.01
2018-06-21T04:24:54.406Z,82.95
2018-06-21T04:25:34.925Z,83.4
2018-06-21T04:26:15.447Z,82.91
2018-06-21T04:26:55.988Z,83.3
2018-06-21T04:27:36.497Z,83.15
2018-06-21T04:28:17.044Z,82.57
2018-06-21T04:28:57.564Z,83.01
2018-06-21T04:29:38.080Z,83.25
2018-06-21T04:30:18.596Z,83.11
2018-06-21T04:30:59.270Z,82.95
2018-06-21T04:31:39.780Z,82.86
2018-06-21T04:32:20.334Z,82.86
2018-06-21T04:33:00.821Z,82.86
2018-06-21T04:33:41.359Z,82.86
2018-06-21T04:34:21.996Z,82.37
2018-06-21T04:35:02.540Z,82.47
2018-06-21T04:35:43.142Z,82.37
2018-06-21T04:36:23.667Z,81.7
2018-06-21T04:37:04.192Z,82.57
2018-06-21T04:37:44.778Z,82.66
2018-06-21T04:38:25.248Z,82.18
2018-06-21T04:39:05.786Z,81.7
2018-06-21T04:39:46.302Z,81.6
2018-06-21T04:40:26.813Z,81.6
2018-06-21T04:41:07.344Z,81.45
2018-06-21T04:41:47.876Z,81.45
2018-06-21T04:42:28.408Z,80.96
2018-06-21T04:43:08.933Z,80.28
2018-06-21T04:43:49.449Z,79.99
2018-06-21T04:44:29.975Z,80.87
2018-06-21T04:45:10.524Z,80.47
2018-06-21T04:45:51.081Z,80.19
2018-06-21T04:46:31.595Z,80.57
2018-06-21T04:47:12.115Z,80.19
2018-06-21T04:47:52.634Z,80.38
2018-06-21T04:48:33.190Z,80.28
2018-06-21T04:49:13.696Z,79.99
2018-06-21T04:49:54.215Z,80.19
2018-06-21T04:50:34.733Z,79.41
2018-06-21T04:54:58.803Z,79.22
2018-06-21T04:55:39.322Z,79.12
2018-06-21T04:56:19.828Z,79.16
2018-06-21T04:57:00.348Z,78.67
2018-06-21T04:57:40.875Z,78.29
2018-06-21T04:58:21.388Z,77.9
2018-06-21T04:59:01.915Z,77.8
2018-06-21T04:59:42.433Z,77.9
2018-06-21T05:00:22.999Z,77.9
2018-06-21T05:01:03.509Z,78.19
2018-06-21T05:01:44.036Z,77.61
2018-06-21T05:02:24.554Z,76.97
2018-06-21T05:03:05.096Z,77.16
2018-06-21T05:03:45.693Z,77.06
2018-06-21T05:04:26.197Z,76.87
2018-06-21T05:05:06.730Z,76.39
2018-06-21T05:05:47.253Z,76.1
2018-06-21T05:06:27.878Z,75.71
2018-06-21T05:07:08.300Z,76.19
2018-06-21T05:07:48.826Z,76.48
2018-06-21T05:08:29.348Z,76.87
2018-06-21T05:09:09.872Z,76.78
2018-06-21T05:09:50.392Z,77.12
2018-06-21T05:10:30.914Z,76.93
2018-06-21T05:11:11.449Z,77.12
2018-06-21T05:11:51.976Z,76.93
2018-06-21T05:12:32.498Z,77.22
2018-06-21T05:13:13.034Z,77.22
2018-06-21T05:13:53.548Z,76.93
2018-06-21T05:14:34.125Z,77.12
2018-06-21T05:15:14.648Z,76.93
2018-06-21T05:15:55.173Z,77.22
2018-06-21T05:16:35.691Z,76.19
2018-06-21T05:17:16.252Z,75.55
2018-06-21T05:17:56.783Z,74.33
2018-06-21T05:18:37.318Z,73.68
2018-06-21T05:19:17.848Z,73.26
2018-06-21T05:19:58.379Z,73.65
2018-06-21T05:20:38.898Z,73.61
2018-06-21T05:21:19.415Z,74.68
2018-06-21T05:21:59.926Z,74.49
2018-06-21T05:22:40.479Z,75.03
2018-06-21T05:23:21.010Z,76.81
2018-06-21T05:24:01.531Z,81.18
2018-06-21T05:24:42.066Z,82.92
2018-06-21T05:25:22.619Z,84.86
2018-06-21T05:26:03.154Z,78.27
2018-06-21T05:26:43.668Z,80.6
2018-06-21T05:27:24.185Z,77.95
2018-06-21T05:28:04.727Z,78.25
2018-06-21T05:28:45.914Z,78.5
2018-06-21T05:29:26.434Z,81.99
2018-06-21T05:30:06.955Z,81.8
2018-06-21T05:30:47.494Z,83.35
2018-06-21T05:31:27.977Z,85.58
2018-06-21T05:32:08.575Z,82.53
2018-06-21T05:32:49.049Z,84.86
2018-06-21T05:33:29.563Z,85.06
2018-06-21T05:34:10.087Z,80.4
2018-06-21T05:34:50.656Z,82.05
2018-06-21T05:35:31.180Z,82.44
2018-06-21T05:36:11.706Z,82.44
2018-06-21T05:36:52.220Z,82.82
2018-06-21T05:37:32.788Z,80.98
2018-06-21T05:38:13.298Z,82.63
2018-06-21T05:38:53.830Z,83.31
2018-06-21T05:39:34.356Z,82.2
2018-06-21T05:40:14.882Z,83.89
2018-06-21T05:40:55.397Z,84.67
2018-06-21T05:41:35.930Z,79.43
2018-06-21T05:42:16.459Z,82.44
2018-06-21T05:42:56.984Z,79.97
2018-06-21T05:43:37.503Z,81.52
2018-06-21T05:44:18.068Z,79.3
2018-06-21T05:44:58.554Z,81.04
2018-06-21T05:45:39.083Z,83.17
2018-06-21T05:46:19.598Z,83.47
2018-06-21T05:47:00.118Z,85.6
2018-06-21T05:47:40.662Z,85.21
2018-06-21T05:48:21.196Z,84.72
2018-06-21T05:49:01.728Z,84.05
2018-06-21T05:49:42.255Z,85.02
2018-06-21T05:50:22.770Z,86.47
2018-06-21T05:51:03.300Z,85.99
2018-06-21T05:51:43.825Z,87.54
2018-06-21T05:52:24.352Z,82.59
2018-06-21T05:53:04.888Z,82.4
2018-06-21T05:53:45.413Z,84.63
2018-06-21T05:54:25.932Z,85.3
2018-06-21T05:55:06.455Z,80.6
2018-06-21T05:55:46.983Z,81.47
2018-06-21T05:56:27.507Z,83.6
2018-06-21T05:57:08.027Z,80.83
2018-06-21T05:57:48.558Z,81.6
2018-06-21T05:58:29.071Z,80.09
2018-06-21T05:59:09.604Z,75.14
2018-06-21T05:59:50.132Z,76.98
2018-06-21T06:00:30.661Z,76.34
2018-06-21T06:01:11.200Z,77.12
2018-06-21T06:01:51.747Z,80.27
2018-06-21T06:02:32.259Z,74.54
2018-06-21T06:03:12.795Z,77.87
2018-06-21T06:03:53.321Z,81.38
2018-06-21T06:04:33.870Z,77.23
2018-06-21T06:05:14.400Z,78.3
2018-06-21T06:05:54.917Z,74.45
2018-06-21T06:06:35.484Z,75.81
2018-06-21T06:07:16.042Z,71.92
2018-06-21T06:07:56.574Z,70.68
2018-06-21T06:08:37.157Z,72.15
2018-06-21T06:09:17.638Z,73.51
2018-06-21T06:09:58.177Z,71.37
2018-06-21T06:10:38.741Z,77.11
2018-06-21T06:11:19.310Z,70.2
2018-06-21T06:11:59.812Z,77.11
2018-06-21T06:12:40.337Z,75.79
2018-06-21T06:13:20.874Z,77.44
2018-06-21T06:14:01.472Z,80.85
2018-06-21T06:14:41.941Z,80.85
2018-06-21T06:15:22.462Z,81.28
2018-06-21T06:16:02.978Z,79.82
2018-06-21T06:16:43.530Z,74.76
2018-06-21T06:17:24.094Z,75.63
2018-06-21T06:18:04.617Z,73.74
2018-06-21T06:18:45.179Z,72.28
2018-06-21T06:19:25.707Z,76.28
2018-06-21T06:20:06.303Z,77.34
2018-06-21T06:20:46.781Z,74.72
2018-06-21T06:21:27.319Z,72.86
2018-06-21T06:22:07.843Z,79.49
2018-06-21T06:22:48.368Z,72.47
2018-06-21T06:23:28.888Z,76.57
2018-06-21T06:24:09.428Z,72.38
2018-06-21T06:24:49.964Z,76.14
2018-06-21T06:25:30.464Z,80.56
2018-06-21T06:26:11.022Z,75.59
2018-06-21T06:26:51.538Z,81.38
2018-06-21T06:27:32.030Z,81.57
2018-06-21T06:28:12.560Z,80.9
2018-06-21T06:28:53.106Z,80.9
2018-06-21T06:29:33.628Z,79.53
2018-06-21T06:30:14.143Z,80.99
2018-06-21T06:30:54.661Z,81.83
2018-06-21T06:31:35.191Z,82.41
2018-06-21T06:32:15.726Z,81.24
2018-06-21T06:32:56.258Z,80.13
2018-06-21T06:33:36.799Z,79.12
2018-06-21T06:34:17.320Z,75.09
2018-06-21T06:34:57.828Z,79.86
2018-06-21T06:35:38.401Z,74.99
2018-06-21T06:36:18.916Z,76.17
2018-06-21T06:36:59.435Z,73.54
2018-06-21T06:37:39.959Z,78.44
2018-06-21T06:38:20.492Z,72.8
2018-06-21T06:39:01.016Z,75.81
2018-06-21T06:39:41.541Z,76.5
2018-06-21T06:40:22.180Z,76.59
2018-06-21T06:41:02.663Z,74.84
2018-06-21T06:41:43.182Z,75.13
2018-06-21T06:42:23.714Z,75.23
2018-06-21T06:43:04.275Z,77.27
2018-06-21T06:43:44.809Z,80.09
2018-06-21T06:44:25.330Z,78.15
2018-06-21T06:45:05.856Z,79.45
2018-06-21T06:45:46.427Z,79.22
2018-06-21T06:46:26.964Z,76.01
2018-06-21T06:47:07.502Z,75.36
2018-06-21T06:47:48.031Z,71.72
2018-06-21T06:48:28.547Z,75.32
2018-06-21T06:49:09.073Z,73.38
2018-06-21T06:49:49.598Z,74.16
2018-06-21T06:50:30.149Z,72.41
2018-06-21T06:51:10.675Z,73.9
2018-06-21T06:51:51.193Z,69.23
2018-06-21T06:52:31.732Z,67.47
2018-06-21T06:53:12.262Z,67.08
2018-06-21T06:53:52.780Z,72.64
2018-06-21T06:54:33.284Z,77.21
2018-06-21T06:55:13.808Z,75.26
2018-06-21T06:55:54.333Z,69.03
2018-06-21T06:56:34.865Z,71.47
2018-06-21T06:57:15.409Z,72.73
2018-06-21T06:57:55.949Z,72.15
2018-06-21T06:58:36.470Z,73.8
2018-06-21T06:59:16.993Z,76.63
2018-06-21T06:59:57.524Z,75.16
2018-06-21T07:00:38.042Z,78.48
2018-06-21T07:01:18.572Z,76.04
2018-06-21T07:01:59.094Z,70.72
2018-06-21T07:02:39.604Z,67.38
2018-06-21T07:03:20.135Z,72.57
2018-06-21T07:04:00.644Z,68.97
2018-06-21T07:04:41.164Z,73.78
2018-06-21T07:05:21.707Z,78.26
2018-06-21T07:06:02.224Z,72.09
2018-06-21T07:06:42.752Z,76.37
2018-06-21T07:07:23.293Z,68.77
2018-06-21T07:08:03.847Z,74.43
2018-06-21T07:08:44.346Z,72.47
2018-06-21T07:09:24.918Z,71.15
2018-06-21T07:10:05.460Z,73.49
2018-06-21T07:10:46.001Z,70.43
2018-06-21T07:11:26.535Z,72.57
2018-06-21T07:12:07.075Z,72.51
2018-06-21T07:12:47.600Z,73.97
2018-06-21T07:13:28.132Z,73.65
2018-06-21T07:14:08.703Z,69.26
2018-06-21T07:14:49.254Z,69.36
2018-06-21T07:15:29.789Z,72.77
2018-06-21T07:16:10.309Z,72.57
2018-06-21T07:16:50.842Z,72.61
2018-06-21T07:17:31.394Z,71.92
2018-06-21T07:18:11.922Z,72.38
2018-06-21T07:18:52.445Z,70.76
2018-06-21T07:19:32.979Z,69.39
2018-06-21T07:20:13.503Z,67.54
2018-06-21T07:20:54.037Z,66.17
2018-06-21T07:21:34.566Z,69.49
2018-06-21T07:22:15.092Z,67.93
2018-06-21T07:22:55.613Z,74.27
2018-06-21T07:23:36.146Z,74.43
2018-06-21T07:24:16.699Z,74.43
2018-06-21T07:24:57.237Z,73.65
2018-06-21T07:25:37.746Z,71.99
2018-06-21T07:26:18.271Z,73.84
2018-06-21T07:26:58.813Z,69.26
2018-06-21T07:27:39.324Z,71.6
2018-06-21T07:28:19.918Z,73.06
2018-06-21T07:29:00.430Z,66.14
2018-06-21T07:29:40.946Z,71.11
2018-06-21T07:30:21.473Z,75.1
2018-06-21T07:31:02.006Z,75.24
2018-06-21T07:31:42.533Z,75.34
2018-06-21T07:32:23.070Z,77.09
2018-06-21T07:33:03.599Z,76.31
2018-06-21T07:33:44.126Z,74.85
2018-06-21T07:34:24.641Z,73.68
2018-06-21T07:35:05.158Z,77.58
2018-06-21T07:35:45.703Z,77.39
2018-06-21T07:36:26.232Z,78.45
2018-06-21T07:37:06.753Z,76.12
2018-06-21T07:37:47.276Z,76.7
2018-06-21T07:38:27.811Z,73.97
2018-06-21T07:39:08.366Z,74.66
2018-06-21T07:39:48.890Z,74.46
2018-06-21T07:40:29.418Z,75.14
2018-06-21T07:41:10.018Z,74.76
2018-06-21T07:41:50.535Z,74.46
2018-06-21T07:42:31.064Z,76.02
2018-06-21T07:43:11.619Z,76.41
2018-06-21T07:43:52.140Z,75.43
2018-06-21T07:44:32.660Z,74.07
2018-06-21T07:45:13.185Z,74.76
2018-06-21T07:45:53.709Z,74.85
2018-06-21T07:46:34.241Z,71.92
2018-06-21T07:47:14.796Z,71.92
2018-06-21T07:47:55.315Z,70.37
2018-06-21T07:48:35.834Z,71.05
2018-06-21T07:49:16.362Z,73.58
2018-06-21T07:49:56.887Z,68.9
2018-06-21T07:50:37.419Z,69.78
2018-06-21T07:51:17.941Z,65.04
2018-06-21T07:51:58.542Z,65.14
2018-06-21T07:52:39.069Z,65.53
2018-06-21T07:53:19.602Z,68.74
2018-06-21T07:54:00.118Z,70.01
2018-06-21T07:54:40.679Z,69.43
2018-06-21T07:55:21.203Z,70.5
2018-06-21T07:56:01.772Z,70.89
2018-06-21T07:56:42.285Z,67.18
2018-06-21T07:57:22.820Z,65.23
2018-06-21T07:58:03.357Z,64.26
2018-06-21T07:58:43.887Z,63.96
2018-06-21T07:59:24.421Z,61.33
2018-06-21T08:00:04.951Z,60.23
2018-06-21T08:00:45.508Z,62.47
2018-06-21T08:01:26.050Z,61.01
2018-06-21T08:02:06.581Z,60.82
2018-06-21T08:02:47.114Z,61.18
2018-06-21T08:03:27.639Z,60.88
2018-06-21T08:04:08.172Z,61.27
2018-06-21T08:04:48.701Z,64.03
2018-06-21T08:05:29.235Z,65.3
2018-06-21T08:06:09.764Z,63.54
2018-06-21T08:06:50.323Z,64.03
2018-06-21T08:07:30.902Z,61.18
2018-06-21T08:08:11.443Z,57.11
2018-06-21T08:08:51.934Z,59.84
2018-06-21T08:09:32.478Z,57.4
2018-06-21T08:10:13.012Z,59.84
2018-06-21T08:10:53.556Z,62.5
2018-06-21T08:11:34.074Z,65.63
2018-06-21T08:12:14.629Z,65.72
2018-06-21T08:12:55.180Z,66.69
2018-06-21T08:13:35.699Z,67.47
2018-06-21T08:14:16.226Z,66.02
2018-06-21T08:14:56.751Z,64.09
2018-06-21T08:15:37.304Z,63.6
2018-06-21T08:16:17.858Z,61.27
2018-06-21T08:16:58.369Z,64.09
2018-06-21T08:17:38.903Z,65.95
2018-06-21T08:18:19.423Z,64.09
2018-06-21T08:18:59.963Z,58.53
2018-06-21T08:19:40.484Z,61.56
2018-06-21T08:20:21.019Z,65.98
2018-06-21T08:21:01.568Z,62.24
2018-06-21T08:21:42.122Z,66.08
2018-06-21T08:22:22.594Z,59.93
2018-06-21T08:23:03.130Z,63.83
2018-06-21T08:23:43.660Z,66.86
2018-06-21T08:24:24.183Z,65.98
2018-06-21T08:25:04.969Z,65
2018-06-21T08:25:45.527Z,61.4
2018-06-21T08:26:26.021Z,58.63
2018-06-21T08:27:06.550Z,62.53
2018-06-21T08:27:47.126Z,62.76
2018-06-21T08:28:27.631Z,62.56
2018-06-21T08:29:08.155Z,61.66
2018-06-21T08:29:48.695Z,62.05
2018-06-21T08:30:29.220Z,61.27
2018-06-21T08:31:09.755Z,60.22
2018-06-21T08:31:50.277Z,61.76
2018-06-21T08:32:30.797Z,62.44
2018-06-21T08:33:11.343Z,62.15
2018-06-21T08:33:51.871Z,60.1
2018-06-21T08:34:32.407Z,62.73
2018-06-21T08:35:12.933Z,58.04
2018-06-21T08:35:53.445Z,55.97
2018-06-21T08:36:33.970Z,60.36
2018-06-21T08:37:14.527Z,62.79
2018-06-21T08:37:55.045Z,66.21
2018-06-21T08:38:35.564Z,66.6
2018-06-21T08:39:16.100Z,65.53
2018-06-21T08:39:56.606Z,62.7
2018-06-21T08:40:37.302Z,62.5
2018-06-21T08:41:17.712Z,59.97
2018-06-21T08:41:58.232Z,64.06
2018-06-21T08:42:38.758Z,61.43
2018-06-21T08:43:19.293Z,56.56
2018-06-21T08:43:59.810Z,59.28
2018-06-21T08:44:40.339Z,62.02
2018-06-21T08:45:20.874Z,65.53
2018-06-21T08:46:01.457Z,66.31
2018-06-21T08:46:41.924Z,68.65
2018-06-21T08:47:22.453Z,65.04